sensor_id;sensor_type;location;lat;lon;timestamp;P1;durP1;ratioP1;P2;durP2;ratioP2
17482;SDS011;8858;52.308;20.994;2023-05-07T00:00:07;5.40;;;4.50;;
17482;SDS011;8858;52.308;20.994;2023-05-07T00:02:40;4.00;;;3.57;;
17482;SDS011;8858;52.308;20.994;2023-05-07T00:05:09;4.30;;;4.00;;
17482;SDS011;8858;52.308;20.994;2023-05-07T00:07:37;4.70;;;3.60;;
17482;SDS011;8858;52.308;20.994;2023-05-07T00:10:07;4.43;;;3.63;;
17482;SDS011;8858;52.308;20.994;2023-05-07T00:12:36;3.83;;;3.50;;
17482;SDS011;8858;52.308;20.994;2023-05-07T00:15:07;3.90;;;3.60;;
17482;SDS011;8858;52.308;20.994;2023-05-07T00:17:35;4.00;;;3.70;;
17482;SDS011;8858;52.308;20.994;2023-05-07T00:20:06;3.93;;;3.40;;
17482;SDS011;8858;52.308;20.994;2023-05-07T00:22:35;3.90;;;3.50;;
17482;SDS011;8858;52.308;20.994;2023-05-07T00:25:04;5.20;;;4.10;;
17482;SDS011;8858;52.308;20.994;2023-05-07T00:27:37;3.97;;;3.60;;
17482;SDS011;8858;52.308;20.994;2023-05-07T00:30:05;4.50;;;3.60;;
17482;SDS011;8858;52.308;20.994;2023-05-07T00:32:35;4.83;;;3.60;;
17482;SDS011;8858;52.308;20.994;2023-05-07T00:35:06;4.23;;;3.60;;
17482;SDS011;8858;52.308;20.994;2023-05-07T00:37:36;3.70;;;3.40;;
17482;SDS011;8858;52.308;20.994;2023-05-07T00:40:05;4.07;;;3.60;;
17482;SDS011;8858;52.308;20.994;2023-05-07T00:42:39;4.87;;;3.97;;
17482;SDS011;8858;52.308;20.994;2023-05-07T00:45:11;4.77;;;3.50;;
17482;SDS011;8858;52.308;20.994;2023-05-07T00:47:40;5.17;;;3.60;;
17482;SDS011;8858;52.308;20.994;2023-05-07T00:50:10;6.13;;;3.40;;
17482;SDS011;8858;52.308;20.994;2023-05-07T00:52:39;5.50;;;3.33;;
17482;SDS011;8858;52.308;20.994;2023-05-07T00:55:08;5.80;;;3.43;;
17482;SDS011;8858;52.308;20.994;2023-05-07T00:57:39;4.63;;;3.60;;
17482;SDS011;8858;52.308;20.994;2023-05-07T01:00:09;6.00;;;3.23;;
17482;SDS011;8858;52.308;20.994;2023-05-07T01:02:41;3.87;;;3.47;;
17482;SDS011;8858;52.308;20.994;2023-05-07T01:05:13;3.90;;;3.60;;
17482;SDS011;8858;52.308;20.994;2023-05-07T01:07:43;5.97;;;3.00;;
17482;SDS011;8858;52.308;20.994;2023-05-07T01:10:14;3.73;;;3.10;;
17482;SDS011;8858;52.308;20.994;2023-05-07T01:12:44;4.70;;;3.40;;
17482;SDS011;8858;52.308;20.994;2023-05-07T01:15:14;3.97;;;3.53;;
17482;SDS011;8858;52.308;20.994;2023-05-07T01:17:42;4.23;;;3.23;;
17482;SDS011;8858;52.308;20.994;2023-05-07T01:20:19;4.00;;;3.70;;
17482;SDS011;8858;52.308;20.994;2023-05-07T01:22:51;3.73;;;3.43;;
17482;SDS011;8858;52.308;20.994;2023-05-07T01:25:21;4.47;;;3.63;;
17482;SDS011;8858;52.308;20.994;2023-05-07T01:27:53;3.83;;;3.53;;
17482;SDS011;8858;52.308;20.994;2023-05-07T01:30:25;3.80;;;3.50;;
17482;SDS011;8858;52.308;20.994;2023-05-07T01:32:57;3.43;;;3.13;;
17482;SDS011;8858;52.308;20.994;2023-05-07T01:35:30;3.50;;;3.20;;
17482;SDS011;8858;52.308;20.994;2023-05-07T01:38:05;3.70;;;3.40;;
17482;SDS011;8858;52.308;20.994;2023-05-07T01:40:36;3.57;;;3.20;;
17482;SDS011;8858;52.308;20.994;2023-05-07T01:43:06;4.30;;;3.00;;
17482;SDS011;8858;52.308;20.994;2023-05-07T01:45:35;3.20;;;2.90;;
17482;SDS011;8858;52.308;20.994;2023-05-07T01:48:05;3.13;;;2.90;;
17482;SDS011;8858;52.308;20.994;2023-05-07T01:50:35;3.37;;;2.80;;
17482;SDS011;8858;52.308;20.994;2023-05-07T01:53:06;4.23;;;2.90;;
17482;SDS011;8858;52.308;20.994;2023-05-07T01:55:34;3.33;;;3.00;;
17482;SDS011;8858;52.308;20.994;2023-05-07T01:58:03;3.20;;;2.90;;
17482;SDS011;8858;52.308;20.994;2023-05-07T02:00:32;2.90;;;2.70;;
17482;SDS011;8858;52.308;20.994;2023-05-07T02:03:01;2.83;;;2.63;;
17482;SDS011;8858;52.308;20.994;2023-05-07T02:05:40;3.03;;;2.73;;
17482;SDS011;8858;52.308;20.994;2023-05-07T02:08:19;3.57;;;2.63;;
17482;SDS011;8858;52.308;20.994;2023-05-07T02:10:47;2.77;;;2.50;;
17482;SDS011;8858;52.308;20.994;2023-05-07T02:13:16;4.10;;;2.90;;
17482;SDS011;8858;52.308;20.994;2023-05-07T02:15:45;3.23;;;2.47;;
17482;SDS011;8858;52.308;20.994;2023-05-07T02:18:19;3.33;;;2.77;;
17482;SDS011;8858;52.308;20.994;2023-05-07T02:20:48;3.20;;;2.70;;
17482;SDS011;8858;52.308;20.994;2023-05-07T02:23:16;5.17;;;2.73;;
17482;SDS011;8858;52.308;20.994;2023-05-07T02:25:45;2.97;;;2.67;;
17482;SDS011;8858;52.308;20.994;2023-05-07T02:28:17;2.90;;;2.63;;
17482;SDS011;8858;52.308;20.994;2023-05-07T02:31:04;3.23;;;2.67;;
17482;SDS011;8858;52.308;20.994;2023-05-07T02:33:34;2.70;;;2.50;;
17482;SDS011;8858;52.308;20.994;2023-05-07T02:36:06;3.20;;;2.80;;
17482;SDS011;8858;52.308;20.994;2023-05-07T02:38:41;3.57;;;2.70;;
17482;SDS011;8858;52.308;20.994;2023-05-07T02:41:11;2.97;;;2.63;;
17482;SDS011;8858;52.308;20.994;2023-05-07T02:43:42;5.30;;;2.70;;
17482;SDS011;8858;52.308;20.994;2023-05-07T02:46:11;3.40;;;2.80;;
17482;SDS011;8858;52.308;20.994;2023-05-07T02:48:46;3.03;;;2.33;;
17482;SDS011;8858;52.308;20.994;2023-05-07T02:51:19;2.90;;;2.60;;
17482;SDS011;8858;52.308;20.994;2023-05-07T02:53:54;2.77;;;2.57;;
17482;SDS011;8858;52.308;20.994;2023-05-07T02:56:28;2.53;;;2.33;;
17482;SDS011;8858;52.308;20.994;2023-05-07T02:58:57;2.90;;;2.60;;
17482;SDS011;8858;52.308;20.994;2023-05-07T03:01:31;3.17;;;2.87;;
17482;SDS011;8858;52.308;20.994;2023-05-07T03:04:05;4.00;;;2.43;;
17482;SDS011;8858;52.308;20.994;2023-05-07T03:06:34;2.77;;;2.57;;
17482;SDS011;8858;52.308;20.994;2023-05-07T03:09:02;2.70;;;2.50;;
17482;SDS011;8858;52.308;20.994;2023-05-07T03:11:34;2.60;;;2.40;;
17482;SDS011;8858;52.308;20.994;2023-05-07T03:14:03;2.87;;;2.63;;
17482;SDS011;8858;52.308;20.994;2023-05-07T03:16:32;2.90;;;2.53;;
17482;SDS011;8858;52.308;20.994;2023-05-07T03:19:01;2.90;;;2.57;;
17482;SDS011;8858;52.308;20.994;2023-05-07T03:21:30;3.17;;;2.63;;
17482;SDS011;8858;52.308;20.994;2023-05-07T03:24:04;2.73;;;2.53;;
17482;SDS011;8858;52.308;20.994;2023-05-07T03:26:34;3.93;;;2.20;;
17482;SDS011;8858;52.308;20.994;2023-05-07T03:29:03;2.60;;;2.40;;
17482;SDS011;8858;52.308;20.994;2023-05-07T03:31:31;2.77;;;2.57;;
17482;SDS011;8858;52.308;20.994;2023-05-07T03:34:01;2.80;;;2.50;;
17482;SDS011;8858;52.308;20.994;2023-05-07T03:36:30;4.03;;;2.57;;
17482;SDS011;8858;52.308;20.994;2023-05-07T03:38:58;3.90;;;2.50;;
17482;SDS011;8858;52.308;20.994;2023-05-07T03:41:36;3.00;;;2.70;;
17482;SDS011;8858;52.308;20.994;2023-05-07T03:44:06;3.10;;;2.83;;
17482;SDS011;8858;52.308;20.994;2023-05-07T03:46:36;2.80;;;2.60;;
17482;SDS011;8858;52.308;20.994;2023-05-07T03:49:09;2.50;;;2.30;;
17482;SDS011;8858;52.308;20.994;2023-05-07T03:51:37;3.47;;;2.70;;
17482;SDS011;8858;52.308;20.994;2023-05-07T03:54:07;2.60;;;2.40;;
17482;SDS011;8858;52.308;20.994;2023-05-07T03:56:42;3.07;;;2.37;;
17482;SDS011;8858;52.308;20.994;2023-05-07T03:59:35;2.70;;;2.50;;
17482;SDS011;8858;52.308;20.994;2023-05-07T04:02:05;3.70;;;2.57;;
17482;SDS011;8858;52.308;20.994;2023-05-07T04:04:37;3.03;;;2.40;;
17482;SDS011;8858;52.308;20.994;2023-05-07T04:07:07;4.33;;;2.53;;
17482;SDS011;8858;52.308;20.994;2023-05-07T04:09:40;2.50;;;2.30;;
17482;SDS011;8858;52.308;20.994;2023-05-07T04:12:13;2.90;;;2.70;;
17482;SDS011;8858;52.308;20.994;2023-05-07T04:14:42;3.13;;;2.50;;
17482;SDS011;8858;52.308;20.994;2023-05-07T04:17:12;2.63;;;2.37;;
17482;SDS011;8858;52.308;20.994;2023-05-07T04:19:40;2.33;;;2.13;;
17482;SDS011;8858;52.308;20.994;2023-05-07T04:22:14;2.50;;;2.30;;
17482;SDS011;8858;52.308;20.994;2023-05-07T04:24:44;2.80;;;2.10;;
17482;SDS011;8858;52.308;20.994;2023-05-07T04:27:14;2.40;;;2.20;;
17482;SDS011;8858;52.308;20.994;2023-05-07T04:29:43;3.40;;;2.30;;
17482;SDS011;8858;52.308;20.994;2023-05-07T04:32:15;2.53;;;2.33;;
17482;SDS011;8858;52.308;20.994;2023-05-07T04:34:45;2.67;;;2.47;;
17482;SDS011;8858;52.308;20.994;2023-05-07T04:37:13;3.27;;;2.50;;
17482;SDS011;8858;52.308;20.994;2023-05-07T04:39:42;3.23;;;2.50;;
17482;SDS011;8858;52.308;20.994;2023-05-07T04:42:15;2.30;;;2.20;;
17482;SDS011;8858;52.308;20.994;2023-05-07T04:44:44;2.17;;;2.00;;
17482;SDS011;8858;52.308;20.994;2023-05-07T04:47:13;3.43;;;2.33;;
17482;SDS011;8858;52.308;20.994;2023-05-07T04:49:42;2.33;;;2.13;;
17482;SDS011;8858;52.308;20.994;2023-05-07T04:52:11;2.67;;;2.47;;
17482;SDS011;8858;52.308;20.994;2023-05-07T04:54:40;2.47;;;2.27;;
17482;SDS011;8858;52.308;20.994;2023-05-07T04:57:09;2.40;;;2.20;;
17482;SDS011;8858;52.308;20.994;2023-05-07T04:59:39;2.10;;;2.00;;
17482;SDS011;8858;52.308;20.994;2023-05-07T05:02:08;2.50;;;2.30;;
17482;SDS011;8858;52.308;20.994;2023-05-07T05:04:37;2.70;;;2.43;;
17482;SDS011;8858;52.308;20.994;2023-05-07T05:07:06;2.23;;;2.03;;
17482;SDS011;8858;52.308;20.994;2023-05-07T05:09:35;2.50;;;2.30;;
17482;SDS011;8858;52.308;20.994;2023-05-07T05:12:05;2.70;;;1.90;;
17482;SDS011;8858;52.308;20.994;2023-05-07T05:14:36;2.10;;;1.87;;
17482;SDS011;8858;52.308;20.994;2023-05-07T05:17:07;3.17;;;2.07;;
17482;SDS011;8858;52.308;20.994;2023-05-07T05:19:36;2.20;;;2.07;;
17482;SDS011;8858;52.308;20.994;2023-05-07T05:22:05;2.30;;;2.10;;
17482;SDS011;8858;52.308;20.994;2023-05-07T05:24:34;2.07;;;1.93;;
17482;SDS011;8858;52.308;20.994;2023-05-07T05:27:03;2.97;;;2.63;;
17482;SDS011;8858;52.308;20.994;2023-05-07T05:29:33;2.30;;;2.10;;
17482;SDS011;8858;52.308;20.994;2023-05-07T05:32:02;2.23;;;2.13;;
17482;SDS011;8858;52.308;20.994;2023-05-07T05:34:36;2.77;;;2.50;;
17482;SDS011;8858;52.308;20.994;2023-05-07T05:37:05;2.27;;;2.17;;
17482;SDS011;8858;52.308;20.994;2023-05-07T05:39:34;2.83;;;2.00;;
17482;SDS011;8858;52.308;20.994;2023-05-07T05:42:04;2.20;;;2.00;;
17482;SDS011;8858;52.308;20.994;2023-05-07T05:44:34;2.87;;;2.67;;
17482;SDS011;8858;52.308;20.994;2023-05-07T05:47:04;4.50;;;3.10;;
17482;SDS011;8858;52.308;20.994;2023-05-07T05:49:33;2.43;;;2.23;;
17482;SDS011;8858;52.308;20.994;2023-05-07T05:52:05;2.90;;;2.23;;
17482;SDS011;8858;52.308;20.994;2023-05-07T05:54:36;1.97;;;1.87;;
17482;SDS011;8858;52.308;20.994;2023-05-07T05:57:05;2.10;;;2.00;;
17482;SDS011;8858;52.308;20.994;2023-05-07T05:59:34;2.70;;;2.07;;
17482;SDS011;8858;52.308;20.994;2023-05-07T06:02:02;2.50;;;2.30;;
17482;SDS011;8858;52.308;20.994;2023-05-07T06:04:31;3.10;;;1.87;;
17482;SDS011;8858;52.308;20.994;2023-05-07T06:07:02;2.20;;;2.00;;
17482;SDS011;8858;52.308;20.994;2023-05-07T06:09:31;2.00;;;1.90;;
17482;SDS011;8858;52.308;20.994;2023-05-07T06:12:00;2.40;;;1.97;;
17482;SDS011;8858;52.308;20.994;2023-05-07T06:14:30;1.93;;;1.80;;
17482;SDS011;8858;52.308;20.994;2023-05-07T06:16:59;2.37;;;2.27;;
17482;SDS011;8858;52.308;20.994;2023-05-07T06:19:28;2.00;;;1.90;;
17482;SDS011;8858;52.308;20.994;2023-05-07T06:21:57;2.07;;;1.87;;
17482;SDS011;8858;52.308;20.994;2023-05-07T06:24:30;4.37;;;3.40;;
17482;SDS011;8858;52.308;20.994;2023-05-07T06:26:59;4.00;;;3.60;;
17482;SDS011;8858;52.308;20.994;2023-05-07T06:29:29;4.80;;;3.00;;
17482;SDS011;8858;52.308;20.994;2023-05-07T06:32:06;2.40;;;2.20;;
17482;SDS011;8858;52.308;20.994;2023-05-07T06:34:35;2.50;;;2.00;;
17482;SDS011;8858;52.308;20.994;2023-05-07T06:37:03;2.30;;;2.10;;
17482;SDS011;8858;52.308;20.994;2023-05-07T06:39:46;1.90;;;1.80;;
17482;SDS011;8858;52.308;20.994;2023-05-07T06:42:17;2.10;;;1.90;;
17482;SDS011;8858;52.308;20.994;2023-05-07T06:44:48;2.50;;;2.13;;
17482;SDS011;8858;52.308;20.994;2023-05-07T06:47:17;3.20;;;2.10;;
17482;SDS011;8858;52.308;20.994;2023-05-07T06:49:50;2.40;;;1.90;;
17482;SDS011;8858;52.308;20.994;2023-05-07T06:52:23;4.47;;;4.07;;
17482;SDS011;8858;52.308;20.994;2023-05-07T06:54:54;4.27;;;3.63;;
17482;SDS011;8858;52.308;20.994;2023-05-07T06:57:26;3.37;;;2.50;;
17482;SDS011;8858;52.308;20.994;2023-05-07T06:59:55;2.07;;;1.93;;
17482;SDS011;8858;52.308;20.994;2023-05-07T07:02:23;3.87;;;2.23;;
17482;SDS011;8858;52.308;20.994;2023-05-07T07:04:51;2.70;;;2.30;;
17482;SDS011;8858;52.308;20.994;2023-05-07T07:07:20;2.30;;;2.10;;
17482;SDS011;8858;52.308;20.994;2023-05-07T07:09:49;2.10;;;2.00;;
17482;SDS011;8858;52.308;20.994;2023-05-07T07:12:23;3.13;;;1.90;;
17482;SDS011;8858;52.308;20.994;2023-05-07T07:14:52;2.20;;;2.00;;
17482;SDS011;8858;52.308;20.994;2023-05-07T07:17:21;3.57;;;1.80;;
17482;SDS011;8858;52.308;20.994;2023-05-07T07:19:49;2.00;;;1.90;;
17482;SDS011;8858;52.308;20.994;2023-05-07T07:22:22;2.37;;;2.10;;
17482;SDS011;8858;52.308;20.994;2023-05-07T07:24:50;4.13;;;1.90;;
17482;SDS011;8858;52.308;20.994;2023-05-07T07:27:19;1.93;;;1.83;;
17482;SDS011;8858;52.308;20.994;2023-05-07T07:29:49;3.00;;;1.90;;
17482;SDS011;8858;52.308;20.994;2023-05-07T07:32:18;2.03;;;1.93;;
17482;SDS011;8858;52.308;20.994;2023-05-07T07:34:50;2.30;;;2.10;;
17482;SDS011;8858;52.308;20.994;2023-05-07T07:37:19;2.30;;;2.07;;
17482;SDS011;8858;52.308;20.994;2023-05-07T07:39:48;2.53;;;2.33;;
17482;SDS011;8858;52.308;20.994;2023-05-07T07:42:16;3.90;;;2.80;;
17482;SDS011;8858;52.308;20.994;2023-05-07T07:44:44;2.53;;;2.30;;
17482;SDS011;8858;52.308;20.994;2023-05-07T07:47:16;9.03;;;2.30;;
17482;SDS011;8858;52.308;20.994;2023-05-07T07:49:47;2.40;;;2.20;;
17482;SDS011;8858;52.308;20.994;2023-05-07T07:52:15;2.50;;;2.20;;
17482;SDS011;8858;52.308;20.994;2023-05-07T07:54:44;2.63;;;1.93;;
17482;SDS011;8858;52.308;20.994;2023-05-07T07:57:12;2.97;;;2.10;;
17482;SDS011;8858;52.308;20.994;2023-05-07T07:59:41;2.33;;;2.07;;
17482;SDS011;8858;52.308;20.994;2023-05-07T08:02:15;2.03;;;1.90;;
17482;SDS011;8858;52.308;20.994;2023-05-07T08:04:44;1.93;;;1.80;;
17482;SDS011;8858;52.308;20.994;2023-05-07T08:07:13;2.93;;;2.00;;
17482;SDS011;8858;52.308;20.994;2023-05-07T08:09:44;2.77;;;1.90;;
17482;SDS011;8858;52.308;20.994;2023-05-07T08:12:16;1.83;;;1.73;;
17482;SDS011;8858;52.308;20.994;2023-05-07T08:14:46;1.67;;;1.60;;
17482;SDS011;8858;52.308;20.994;2023-05-07T08:17:15;1.87;;;1.67;;
17482;SDS011;8858;52.308;20.994;2023-05-07T08:19:45;3.13;;;1.50;;
17482;SDS011;8858;52.308;20.994;2023-05-07T08:22:16;3.23;;;1.60;;
17482;SDS011;8858;52.308;20.994;2023-05-07T08:24:45;2.13;;;1.90;;
17482;SDS011;8858;52.308;20.994;2023-05-07T08:27:13;1.77;;;1.60;;
17482;SDS011;8858;52.308;20.994;2023-05-07T08:29:42;2.60;;;2.10;;
17482;SDS011;8858;52.308;20.994;2023-05-07T08:32:19;2.87;;;2.00;;
17482;SDS011;8858;52.308;20.994;2023-05-07T08:34:47;1.77;;;1.53;;
17482;SDS011;8858;52.308;20.994;2023-05-07T08:37:16;1.90;;;1.80;;
17482;SDS011;8858;52.308;20.994;2023-05-07T08:39:45;2.93;;;2.63;;
17482;SDS011;8858;52.308;20.994;2023-05-07T08:42:19;2.40;;;1.87;;
17482;SDS011;8858;52.308;20.994;2023-05-07T08:44:51;1.97;;;1.77;;
17482;SDS011;8858;52.308;20.994;2023-05-07T08:47:27;4.00;;;1.70;;
17482;SDS011;8858;52.308;20.994;2023-05-07T08:50:01;2.93;;;1.50;;
17482;SDS011;8858;52.308;20.994;2023-05-07T08:52:34;3.33;;;1.80;;
17482;SDS011;8858;52.308;20.994;2023-05-07T08:55:03;2.57;;;1.70;;
17482;SDS011;8858;52.308;20.994;2023-05-07T08:57:32;3.47;;;1.80;;
17482;SDS011;8858;52.308;20.994;2023-05-07T09:00:02;2.83;;;1.70;;
17482;SDS011;8858;52.308;20.994;2023-05-07T09:02:36;2.27;;;1.90;;
17482;SDS011;8858;52.308;20.994;2023-05-07T09:05:07;4.20;;;1.80;;
17482;SDS011;8858;52.308;20.994;2023-05-07T09:07:37;2.57;;;1.80;;
17482;SDS011;8858;52.308;20.994;2023-05-07T09:10:12;4.60;;;1.83;;
17482;SDS011;8858;52.308;20.994;2023-05-07T09:12:42;2.00;;;1.90;;
17482;SDS011;8858;52.308;20.994;2023-05-07T09:15:12;2.40;;;1.90;;
17482;SDS011;8858;52.308;20.994;2023-05-07T09:17:44;2.07;;;1.70;;
17482;SDS011;8858;52.308;20.994;2023-05-07T09:20:13;2.10;;;1.67;;
17482;SDS011;8858;52.308;20.994;2023-05-07T09:22:41;1.90;;;1.80;;
17482;SDS011;8858;52.308;20.994;2023-05-07T09:25:14;1.67;;;1.57;;
17482;SDS011;8858;52.308;20.994;2023-05-07T09:27:44;2.63;;;1.80;;
17482;SDS011;8858;52.308;20.994;2023-05-07T09:30:14;2.67;;;1.63;;
17482;SDS011;8858;52.308;20.994;2023-05-07T09:32:44;2.10;;;1.85;;
17482;SDS011;8858;52.308;20.994;2023-05-07T09:35:17;4.67;;;2.07;;
17482;SDS011;8858;52.308;20.994;2023-05-07T09:37:52;2.23;;;2.00;;
17482;SDS011;8858;52.308;20.994;2023-05-07T09:40:22;3.27;;;1.80;;
17482;SDS011;8858;52.308;20.994;2023-05-07T09:42:53;2.50;;;1.40;;
17482;SDS011;8858;52.308;20.994;2023-05-07T09:45:24;1.80;;;1.50;;
17482;SDS011;8858;52.308;20.994;2023-05-07T09:47:57;2.67;;;1.83;;
17482;SDS011;8858;52.308;20.994;2023-05-07T09:50:29;2.03;;;1.30;;
17482;SDS011;8858;52.308;20.994;2023-05-07T09:53:03;2.20;;;1.40;;
17482;SDS011;8858;52.308;20.994;2023-05-07T09:55:33;2.17;;;1.60;;
17482;SDS011;8858;52.308;20.994;2023-05-07T09:58:05;1.77;;;1.50;;
17482;SDS011;8858;52.308;20.994;2023-05-07T10:00:36;1.90;;;1.63;;
17482;SDS011;8858;52.308;20.994;2023-05-07T10:03:12;3.20;;;1.70;;
17482;SDS011;8858;52.308;20.994;2023-05-07T10:05:53;1.93;;;1.40;;
17482;SDS011;8858;52.308;20.994;2023-05-07T10:08:23;2.07;;;1.87;;
17482;SDS011;8858;52.308;20.994;2023-05-07T10:10:55;1.57;;;1.23;;
17482;SDS011;8858;52.308;20.994;2023-05-07T10:13:26;1.37;;;1.23;;
17482;SDS011;8858;52.308;20.994;2023-05-07T10:15:57;3.70;;;1.63;;
17482;SDS011;8858;52.308;20.994;2023-05-07T10:18:32;1.93;;;1.50;;
17482;SDS011;8858;52.308;20.994;2023-05-07T10:21:09;2.97;;;1.63;;
17482;SDS011;8858;52.308;20.994;2023-05-07T10:23:49;4.00;;;1.87;;
17482;SDS011;8858;52.308;20.994;2023-05-07T10:26:20;2.43;;;1.40;;
17482;SDS011;8858;52.308;20.994;2023-05-07T10:28:53;1.50;;;1.40;;
17482;SDS011;8858;52.308;20.994;2023-05-07T10:31:35;2.10;;;1.70;;
17482;SDS011;8858;52.308;20.994;2023-05-07T10:34:24;1.83;;;1.70;;
17482;SDS011;8858;52.308;20.994;2023-05-07T10:36:57;2.10;;;1.80;;
17482;SDS011;8858;52.308;20.994;2023-05-07T10:39:27;1.60;;;1.50;;
17482;SDS011;8858;52.308;20.994;2023-05-07T10:41:56;2.97;;;1.47;;
17482;SDS011;8858;52.308;20.994;2023-05-07T10:44:34;2.80;;;1.70;;
17482;SDS011;8858;52.308;20.994;2023-05-07T10:47:10;1.63;;;1.53;;
17482;SDS011;8858;52.308;20.994;2023-05-07T10:56:26;3.00;;;1.50;;
17482;SDS011;8858;52.308;20.994;2023-05-07T10:59:30;3.20;;;1.50;;
17482;SDS011;8858;52.308;20.994;2023-05-07T11:02:09;2.43;;;1.60;;
17482;SDS011;8858;52.308;20.994;2023-05-07T11:08:09;1.50;;;1.40;;
17482;SDS011;8858;52.308;20.994;2023-05-07T11:10:50;2.37;;;1.50;;
17482;SDS011;8858;52.308;20.994;2023-05-07T11:13:41;1.37;;;1.27;;
17482;SDS011;8858;52.308;20.994;2023-05-07T11:16:16;4.83;;;1.37;;
17482;SDS011;8858;52.308;20.994;2023-05-07T11:18:47;1.60;;;1.50;;
17482;SDS011;8858;52.308;20.994;2023-05-07T11:21:32;1.97;;;1.30;;
17482;SDS011;8858;52.308;20.994;2023-05-07T11:24:25;2.50;;;1.27;;
17482;SDS011;8858;52.308;20.994;2023-05-07T11:27:01;1.43;;;1.30;;
17482;SDS011;8858;52.308;20.994;2023-05-07T11:29:31;2.63;;;1.60;;
17482;SDS011;8858;52.308;20.994;2023-05-07T11:32:05;3.13;;;1.70;;
17482;SDS011;8858;52.308;20.994;2023-05-07T11:34:43;2.90;;;1.30;;
17482;SDS011;8858;52.308;20.994;2023-05-07T11:37:16;1.80;;;1.70;;
17482;SDS011;8858;52.308;20.994;2023-05-07T11:40:03;1.77;;;1.60;;
17482;SDS011;8858;52.308;20.994;2023-05-07T11:42:34;1.73;;;1.40;;
17482;SDS011;8858;52.308;20.994;2023-05-07T11:45:04;1.50;;;1.40;;
17482;SDS011;8858;52.308;20.994;2023-05-07T11:47:35;4.33;;;1.53;;
17482;SDS011;8858;52.308;20.994;2023-05-07T11:50:07;2.37;;;1.60;;
17482;SDS011;8858;52.308;20.994;2023-05-07T11:52:37;2.23;;;1.50;;
17482;SDS011;8858;52.308;20.994;2023-05-07T11:55:09;4.43;;;1.43;;
17482;SDS011;8858;52.308;20.994;2023-05-07T11:57:39;2.30;;;1.43;;
17482;SDS011;8858;52.308;20.994;2023-05-07T12:00:09;2.50;;;1.33;;
17482;SDS011;8858;52.308;20.994;2023-05-07T12:02:38;2.53;;;1.40;;
17482;SDS011;8858;52.308;20.994;2023-05-07T12:05:07;3.13;;;1.57;;
17482;SDS011;8858;52.308;20.994;2023-05-07T12:07:38;4.10;;;1.47;;
17482;SDS011;8858;52.308;20.994;2023-05-07T12:10:06;4.43;;;1.60;;
17482;SDS011;8858;52.308;20.994;2023-05-07T12:12:40;1.33;;;1.33;;
17482;SDS011;8858;52.308;20.994;2023-05-07T12:15:17;2.03;;;1.33;;
17482;SDS011;8858;52.308;20.994;2023-05-07T12:17:55;4.70;;;1.53;;
17482;SDS011;8858;52.308;20.994;2023-05-07T12:20:23;2.33;;;1.60;;
17482;SDS011;8858;52.308;20.994;2023-05-07T12:22:51;1.43;;;1.33;;
17482;SDS011;8858;52.308;20.994;2023-05-07T12:25:20;2.27;;;1.40;;
17482;SDS011;8858;52.308;20.994;2023-05-07T12:27:52;1.90;;;1.30;;
17482;SDS011;8858;52.308;20.994;2023-05-07T12:30:21;5.50;;;1.90;;
17482;SDS011;8858;52.308;20.994;2023-05-07T12:32:52;1.70;;;1.60;;
17482;SDS011;8858;52.308;20.994;2023-05-07T12:35:27;1.73;;;1.20;;
17482;SDS011;8858;52.308;20.994;2023-05-07T12:37:56;2.93;;;1.50;;
17482;SDS011;8858;52.308;20.994;2023-05-07T12:40:35;1.53;;;1.43;;
17482;SDS011;8858;52.308;20.994;2023-05-07T12:43:06;1.60;;;1.50;;
17482;SDS011;8858;52.308;20.994;2023-05-07T12:45:36;1.30;;;1.20;;
17482;SDS011;8858;52.308;20.994;2023-05-07T12:48:06;3.20;;;1.23;;
17482;SDS011;8858;52.308;20.994;2023-05-07T12:50:34;3.27;;;1.40;;
17482;SDS011;8858;52.308;20.994;2023-05-07T12:53:02;1.40;;;1.30;;
17482;SDS011;8858;52.308;20.994;2023-05-07T12:55:40;2.63;;;1.43;;
17482;SDS011;8858;52.308;20.994;2023-05-07T12:58:18;1.40;;;1.30;;
17482;SDS011;8858;52.308;20.994;2023-05-07T13:00:47;2.40;;;1.40;;
17482;SDS011;8858;52.308;20.994;2023-05-07T13:03:21;1.40;;;1.30;;
17482;SDS011;8858;52.308;20.994;2023-05-07T13:05:50;2.88;;;1.20;;
17482;SDS011;8858;52.308;20.994;2023-05-07T13:08:26;1.37;;;1.30;;
17482;SDS011;8858;52.308;20.994;2023-05-07T13:10:58;1.67;;;1.27;;
17482;SDS011;8858;52.308;20.994;2023-05-07T13:13:31;1.40;;;1.30;;
17482;SDS011;8858;52.308;20.994;2023-05-07T13:16:00;1.08;;;1.05;;
17482;SDS011;8858;52.308;20.994;2023-05-07T13:18:30;2.13;;;1.08;;
17482;SDS011;8858;52.308;20.994;2023-05-07T13:21:00;1.33;;;1.23;;
17482;SDS011;8858;52.308;20.994;2023-05-07T13:23:29;3.33;;;1.50;;
17482;SDS011;8858;52.308;20.994;2023-05-07T13:25:57;1.30;;;1.20;;
17482;SDS011;8858;52.308;20.994;2023-05-07T13:28:34;1.15;;;1.10;;
17482;SDS011;8858;52.308;20.994;2023-05-07T13:31:03;2.15;;;1.17;;
17482;SDS011;8858;52.308;20.994;2023-05-07T13:33:31;1.27;;;1.27;;
17482;SDS011;8858;52.308;20.994;2023-05-07T13:36:00;1.73;;;1.10;;
17482;SDS011;8858;52.308;20.994;2023-05-07T13:38:33;2.30;;;1.20;;
17482;SDS011;8858;52.308;20.994;2023-05-07T13:41:01;1.45;;;1.00;;
17482;SDS011;8858;52.308;20.994;2023-05-07T13:43:30;1.48;;;1.10;;
17482;SDS011;8858;52.308;20.994;2023-05-07T13:45:59;2.03;;;1.30;;
17482;SDS011;8858;52.308;20.994;2023-05-07T13:48:28;0.93;;;0.93;;
17482;SDS011;8858;52.308;20.994;2023-05-07T13:51:00;4.38;;;1.60;;
17482;SDS011;8858;52.308;20.994;2023-05-07T13:53:28;2.20;;;1.83;;
17482;SDS011;8858;52.308;20.994;2023-05-07T13:55:56;1.20;;;1.10;;
17482;SDS011;8858;52.308;20.994;2023-05-07T13:58:24;1.40;;;1.00;;
17482;SDS011;8858;52.308;20.994;2023-05-07T14:00:53;2.30;;;1.00;;
17482;SDS011;8858;52.308;20.994;2023-05-07T14:03:23;2.85;;;1.20;;
17482;SDS011;8858;52.308;20.994;2023-05-07T14:05:51;1.20;;;1.10;;
17482;SDS011;8858;52.308;20.994;2023-05-07T14:08:20;2.25;;;0.90;;
17482;SDS011;8858;52.308;20.994;2023-05-07T14:10:48;1.00;;;1.00;;
17482;SDS011;8858;52.308;20.994;2023-05-07T14:13:17;1.00;;;1.00;;
17482;SDS011;8858;52.308;20.994;2023-05-07T14:15:45;1.58;;;0.85;;
17482;SDS011;8858;52.308;20.994;2023-05-07T14:18:16;2.50;;;1.10;;
17482;SDS011;8858;52.308;20.994;2023-05-07T14:20:45;1.15;;;1.05;;
17482;SDS011;8858;52.308;20.994;2023-05-07T14:23:18;1.10;;;1.00;;
17482;SDS011;8858;52.308;20.994;2023-05-07T14:25:52;2.35;;;1.00;;
17482;SDS011;8858;52.308;20.994;2023-05-07T14:28:20;1.27;;;1.02;;
17482;SDS011;8858;52.308;20.994;2023-05-07T14:30:49;3.00;;;1.80;;
17482;SDS011;8858;52.308;20.994;2023-05-07T14:33:17;2.15;;;1.17;;
17482;SDS011;8858;52.308;20.994;2023-05-07T14:35:47;2.10;;;1.35;;
17482;SDS011;8858;52.308;20.994;2023-05-07T14:38:17;1.83;;;1.15;;
17482;SDS011;8858;52.308;20.994;2023-05-07T14:40:45;1.33;;;1.10;;
17482;SDS011;8858;52.308;20.994;2023-05-07T14:43:14;1.50;;;1.40;;
17482;SDS011;8858;52.308;20.994;2023-05-07T14:45:43;1.85;;;1.20;;
17482;SDS011;8858;52.308;20.994;2023-05-07T14:48:13;1.38;;;1.30;;
17482;SDS011;8858;52.308;20.994;2023-05-07T14:50:41;0.90;;;0.90;;
17482;SDS011;8858;52.308;20.994;2023-05-07T14:53:11;3.97;;;1.60;;
17482;SDS011;8858;52.308;20.994;2023-05-07T14:55:40;4.20;;;1.90;;
17482;SDS011;8858;52.308;20.994;2023-05-07T14:58:10;1.70;;;1.00;;
17482;SDS011;8858;52.308;20.994;2023-05-07T15:00:40;1.65;;;1.02;;
17482;SDS011;8858;52.308;20.994;2023-05-07T15:03:09;2.78;;;1.40;;
17482;SDS011;8858;52.308;20.994;2023-05-07T15:05:42;1.88;;;1.30;;
17482;SDS011;8858;52.308;20.994;2023-05-07T15:08:13;1.40;;;1.30;;
17482;SDS011;8858;52.308;20.994;2023-05-07T15:10:41;3.40;;;1.80;;
17482;SDS011;8858;52.308;20.994;2023-05-07T15:13:09;2.13;;;1.20;;
17482;SDS011;8858;52.308;20.994;2023-05-07T15:15:42;0.80;;;0.80;;
17482;SDS011;8858;52.308;20.994;2023-05-07T15:18:12;1.45;;;1.35;;
17482;SDS011;8858;52.308;20.994;2023-05-07T15:20:41;1.48;;;1.20;;